createdAt,value
2022-10-20T00:01:09.898Z,68.45
2022-10-20T00:03:36.738Z,68.01
2022-10-20T00:06:15.722Z,69.72
2022-10-20T00:08:43.077Z,71.21
2022-10-20T00:11:11.738Z,69.70
2022-10-20T00:13:39.404Z,70.89
2022-10-20T00:16:06.471Z,70.62
2022-10-20T00:18:33.712Z,72.28
2022-10-20T00:21:00.234Z,71.60
2022-10-20T00:23:26.728Z,69.45
2022-10-20T00:26:05.530Z,68.34
2022-10-20T00:28:32.230Z,67.80
2022-10-20T00:30:58.722Z,68.80
2022-10-20T00:33:25.903Z,69.64
2022-10-20T00:35:52.366Z,69.00
2022-10-20T00:40:50.150Z,67.93
2022-10-20T00:43:17.304Z,68.77
2022-10-20T00:45:49.963Z,67.87
2022-10-20T00:48:19.990Z,66.98
2022-10-20T00:50:52.693Z,67.49
2022-10-20T00:53:21.539Z,67.15
2022-10-20T00:55:50.828Z,67.73
2022-10-20T00:58:18.171Z,67.93
2022-10-20T01:00:48.298Z,68.37
2022-10-20T01:03:19.466Z,68.71
2022-10-20T01:05:45.872Z,67.06
2022-10-20T01:08:12.322Z,67.55
2022-10-20T01:11:06.274Z,66.91
2022-10-20T01:13:59.627Z,66.82
2022-10-20T01:16:59.075Z,66.60
2022-10-20T01:19:59.546Z,68.23
2022-10-20T01:22:37.602Z,67.29
2022-10-20T01:25:10.152Z,67.36
2022-10-20T01:27:44.646Z,67.74
2022-10-20T01:30:24.717Z,67.32
2022-10-20T01:33:18.801Z,67.53
2022-10-20T01:36:10.654Z,67.73
2022-10-20T01:38:43.801Z,68.10
2022-10-20T01:41:46.611Z,67.55
2022-10-20T01:44:16.845Z,67.36
2022-10-20T01:46:45.115Z,67.32
2022-10-20T01:49:17.687Z,67.63
2022-10-20T01:51:44.056Z,68.40
2022-10-20T01:54:25.918Z,68.66
2022-10-20T01:57:07.559Z,69.43
2022-10-20T02:00:10.316Z,67.74
2022-10-20T02:02:42.796Z,68.35
2022-10-20T02:05:37.928Z,69.30
2022-10-20T02:08:33.215Z,67.52
2022-10-20T02:11:03.002Z,67.33
2022-10-20T02:13:31.167Z,68.47
2022-10-20T02:16:01.146Z,68.22
2022-10-20T02:18:33.591Z,69.32
2022-10-20T02:21:02.773Z,68.77
2022-10-20T02:23:35.086Z,66.61
2022-10-20T02:26:12.618Z,67.92
2022-10-20T02:28:42.892Z,67.50
2022-10-20T02:31:09.829Z,67.40
2022-10-20T02:33:42.404Z,66.56
2022-10-20T02:36:15.641Z,66.69
2022-10-20T02:38:42.013Z,67.09
2022-10-20T02:41:08.391Z,67.28
2022-10-20T02:43:35.017Z,67.08
2022-10-20T02:46:01.555Z,67.72
2022-10-20T02:48:27.948Z,68.83
2022-10-20T02:50:54.370Z,68.26
2022-10-20T02:53:20.755Z,68.51
2022-10-20T02:55:47.205Z,68.85
2022-10-20T02:58:13.679Z,68.59
2022-10-20T03:00:40.161Z,68.59
2022-10-20T03:03:06.718Z,69.34
2022-10-20T03:05:33.240Z,69.97
2022-10-20T03:07:59.755Z,69.54
2022-10-20T03:10:26.267Z,70.29
2022-10-20T03:12:52.744Z,68.99
2022-10-20T03:15:19.171Z,67.61
2022-10-20T03:17:45.545Z,67.42
2022-10-20T03:20:11.895Z,67.20
2022-10-20T03:22:38.414Z,68.41
2022-10-20T03:25:05.260Z,67.71
2022-10-20T03:27:31.677Z,67.41
2022-10-20T03:29:58.230Z,68.53
2022-10-20T03:32:24.635Z,68.83
2022-10-20T03:34:51.128Z,68.50
2022-10-20T03:37:17.712Z,66.57
2022-10-20T03:39:44.090Z,66.33
2022-10-20T03:42:10.434Z,66.32
2022-10-20T03:44:36.872Z,66.63
2022-10-20T03:47:03.312Z,66.66
2022-10-20T03:49:33.361Z,67.34
2022-10-20T03:52:00.076Z,67.37
2022-10-20T03:54:26.672Z,67.41
2022-10-20T03:56:53.151Z,67.80
2022-10-20T03:59:19.727Z,68.33
2022-10-20T04:01:47.105Z,69.22
2022-10-20T04:04:14.172Z,69.16
2022-10-20T04:06:40.643Z,68.29
2022-10-20T04:09:07.137Z,69.26
2022-10-20T04:11:36.769Z,70.56
2022-10-20T04:14:09.564Z,69.21
2022-10-20T04:16:35.976Z,69.20
2022-10-20T04:19:02.405Z,70.18
2022-10-20T04:21:28.826Z,70.10
2022-10-20T04:23:55.192Z,71.08
2022-10-20T04:26:21.557Z,70.81
2022-10-20T04:29:14.245Z,71.56
2022-10-20T04:31:41.751Z,72.49
2022-10-20T04:34:29.826Z,71.49
2022-10-20T04:36:56.413Z,70.89
2022-10-20T04:39:51.288Z,70.62
2022-10-20T04:42:18.668Z,70.84
2022-10-20T04:44:55.501Z,73.36
2022-10-20T04:47:22.038Z,75.00
2022-10-20T04:49:48.522Z,75.56
2022-10-20T04:52:14.831Z,73.29
2022-10-20T04:54:42.441Z,74.32
2022-10-20T04:57:10.755Z,73.82
2022-10-20T04:59:37.456Z,72.86
2022-10-20T05:02:04.015Z,71.83
2022-10-20T05:04:31.280Z,72.47
2022-10-20T05:06:57.665Z,72.63
2022-10-20T05:09:24.055Z,72.58
2022-10-20T05:11:54.704Z,73.88
2022-10-20T05:14:21.308Z,72.86
2022-10-20T05:16:53.993Z,72.72
2022-10-20T05:19:20.564Z,73.59
2022-10-20T05:21:47.962Z,75.45
2022-10-20T05:24:19.847Z,75.61
2022-10-20T05:26:48.370Z,77.97
2022-10-20T05:29:14.795Z,75.81
2022-10-20T05:31:43.301Z,75.79
2022-10-20T05:34:11.081Z,76.13
2022-10-20T05:36:37.796Z,76.22
2022-10-20T05:39:04.367Z,76.03
2022-10-20T05:41:36.287Z,75.87
2022-10-20T05:44:07.079Z,74.94
2022-10-20T05:46:37.795Z,73.37
2022-10-20T05:49:04.272Z,72.33
2022-10-20T05:51:34.196Z,75.04
2022-10-20T05:54:01.965Z,74.99
2022-10-20T05:56:30.091Z,76.88
2022-10-20T05:58:57.993Z,78.81
2022-10-20T06:01:27.889Z,75.41
2022-10-20T06:03:56.932Z,73.07
2022-10-20T06:06:29.755Z,76.05
2022-10-20T06:08:58.753Z,77.34
2022-10-20T06:11:26.115Z,78.57
2022-10-20T06:13:55.834Z,80.20
2022-10-20T06:16:24.299Z,77.75
2022-10-20T06:18:51.000Z,77.77
2022-10-20T06:21:20.060Z,79.26
2022-10-20T06:23:46.568Z,78.40
2022-10-20T06:26:17.645Z,81.04
2022-10-20T06:28:45.006Z,81.25
2022-10-20T06:31:20.086Z,78.06
2022-10-20T06:33:47.187Z,76.82
2022-10-20T06:36:14.520Z,80.01
2022-10-20T06:38:41.670Z,79.03
2022-10-20T06:41:11.809Z,79.19
2022-10-20T06:43:38.554Z,77.92
2022-10-20T06:46:07.914Z,79.37
2022-10-20T06:48:35.481Z,80.38
2022-10-20T06:51:13.905Z,78.35
2022-10-20T06:53:44.311Z,78.03
2022-10-20T06:56:16.457Z,73.53
2022-10-20T06:58:44.804Z,73.82
2022-10-20T07:01:14.689Z,73.35
2022-10-20T07:03:45.048Z,73.06
2022-10-20T07:06:17.247Z,71.99
2022-10-20T07:08:43.937Z,70.66
2022-10-20T07:11:16.494Z,74.45
2022-10-20T07:13:43.601Z,72.83
2022-10-20T07:16:14.093Z,70.93
2022-10-20T07:18:41.418Z,74.89
2022-10-20T07:21:12.511Z,73.48
2022-10-20T07:23:38.975Z,71.34
2022-10-20T07:26:12.744Z,74.33
2022-10-20T07:28:42.604Z,76.25
2022-10-20T07:31:15.176Z,72.81
2022-10-20T07:33:41.615Z,73.15
2022-10-20T07:36:20.476Z,73.30
2022-10-20T07:38:48.090Z,74.85
2022-10-20T07:41:15.410Z,74.73
2022-10-20T07:43:42.318Z,73.08
2022-10-20T07:46:09.976Z,72.58
2022-10-20T07:48:36.741Z,74.62
2022-10-20T07:51:21.485Z,77.96
2022-10-20T07:53:48.787Z,75.59
2022-10-20T07:56:15.702Z,74.55
2022-10-20T07:58:43.173Z,73.64
2022-10-20T08:01:10.415Z,70.44
2022-10-20T08:03:37.280Z,76.06
2022-10-20T08:06:03.974Z,77.98
2022-10-20T08:08:30.585Z,77.52
2022-10-20T08:10:58.391Z,75.17
2022-10-20T08:13:26.355Z,73.27
2022-10-20T08:18:36.033Z,71.96
2022-10-20T08:21:07.181Z,71.96
2022-10-20T08:23:33.578Z,72.86
2022-10-20T08:25:59.900Z,73.56
2022-10-20T08:28:27.129Z,72.33
2022-10-20T08:30:53.785Z,71.01
2022-10-20T08:33:20.179Z,71.80
2022-10-20T08:35:46.591Z,71.59
2022-10-20T08:38:13.027Z,70.22
2022-10-20T08:40:42.631Z,70.66
2022-10-20T08:43:18.925Z,69.10
2022-10-20T08:45:45.891Z,70.59
2022-10-20T08:48:19.146Z,69.83
2022-10-20T08:50:48.944Z,69.98
2022-10-20T08:53:15.351Z,68.46
2022-10-20T08:55:44.189Z,66.97
2022-10-20T08:58:22.855Z,69.40
2022-10-20T09:00:56.077Z,68.46
2022-10-20T09:03:27.967Z,67.90
2022-10-20T09:06:01.816Z,65.63
2022-10-20T09:08:31.183Z,66.81
2022-10-20T09:10:57.766Z,65.17
2022-10-20T09:13:29.900Z,67.71
2022-10-20T09:16:22.059Z,69.82
2022-10-20T09:19:01.381Z,67.25
2022-10-20T09:21:31.647Z,65.66
2022-10-20T09:24:03.900Z,66.07
2022-10-20T09:26:57.935Z,65.18
2022-10-20T09:29:35.721Z,66.30
2022-10-20T09:32:15.354Z,64.01
2022-10-20T09:34:44.419Z,63.82
2022-10-20T09:37:14.452Z,63.35
2022-10-20T09:39:55.654Z,61.47
2022-10-20T09:42:30.347Z,60.59
2022-10-20T09:45:02.472Z,59.99
2022-10-20T09:47:29.069Z,59.28
2022-10-20T09:50:05.558Z,59.91
2022-10-20T09:52:38.106Z,60.57
2022-10-20T09:55:17.020Z,59.15
2022-10-20T09:57:47.642Z,57.51
2022-10-20T10:00:38.313Z,59.35
2022-10-20T10:03:11.027Z,59.76
2022-10-20T10:05:37.401Z,56.35
2022-10-20T10:08:03.842Z,58.50
2022-10-20T10:10:31.928Z,58.43
2022-10-20T10:13:01.173Z,57.71
2022-10-20T10:15:31.985Z,56.48
2022-10-20T10:17:59.739Z,53.43
2022-10-20T10:20:37.580Z,55.00
2022-10-20T10:23:26.548Z,54.90
2022-10-20T10:25:56.789Z,54.45
2022-10-20T10:28:39.140Z,54.56
2022-10-20T10:31:05.499Z,56.46
2022-10-20T10:33:33.177Z,55.00
2022-10-20T10:36:05.342Z,53.00
2022-10-20T10:38:31.589Z,52.84
2022-10-20T10:41:16.081Z,52.63
2022-10-20T10:44:00.766Z,52.90
2022-10-20T10:46:36.916Z,53.57
2022-10-20T10:49:22.183Z,53.38
2022-10-20T10:52:00.955Z,53.41
2022-10-20T10:55:14.382Z,53.79
2022-10-20T10:58:01.156Z,52.25
2022-10-20T11:00:33.606Z,52.30
2022-10-20T11:03:14.653Z,51.75
2022-10-20T11:05:59.122Z,52.49
2022-10-20T11:08:36.709Z,52.05
2022-10-20T11:11:18.831Z,52.11
2022-10-20T11:14:12.941Z,51.94
2022-10-20T11:16:54.127Z,51.47
2022-10-20T11:19:35.148Z,50.93
2022-10-20T11:22:27.933Z,52.39
2022-10-20T11:25:16.012Z,51.35
2022-10-20T11:27:42.620Z,50.63
2022-10-20T11:30:22.014Z,50.76
2022-10-20T11:33:17.062Z,50.65
2022-10-20T11:36:03.288Z,50.56
2022-10-20T11:38:51.122Z,50.05
2022-10-20T11:41:28.568Z,50.54
2022-10-20T11:44:36.486Z,50.36
2022-10-20T11:47:28.912Z,50.18
2022-10-20T11:49:55.368Z,49.93
2022-10-20T11:52:40.362Z,49.56
2022-10-20T11:55:49.591Z,49.11
2022-10-20T11:58:33.315Z,49.04
2022-10-20T12:01:09.012Z,48.40
2022-10-20T12:04:06.521Z,50.66
2022-10-20T12:06:51.726Z,50.15
2022-10-20T12:09:50.333Z,49.32
2022-10-20T12:12:32.431Z,48.67
2022-10-20T12:15:00.982Z,48.94
2022-10-20T12:17:42.483Z,48.99
2022-10-20T12:20:21.225Z,48.05
2022-10-20T12:22:58.950Z,48.06
2022-10-20T12:25:25.351Z,48.99
2022-10-20T12:28:19.695Z,47.97
2022-10-20T12:31:00.398Z,47.88
2022-10-20T12:33:40.891Z,47.91
2022-10-20T12:36:28.371Z,48.19
2022-10-20T12:39:13.488Z,47.73
2022-10-20T12:42:05.212Z,49.10
2022-10-20T12:44:42.056Z,48.17
2022-10-20T12:47:10.130Z,47.83
2022-10-20T12:49:40.392Z,48.62
2022-10-20T12:52:17.443Z,48.17
2022-10-20T12:54:48.456Z,48.29
2022-10-20T12:57:31.527Z,47.82
2022-10-20T12:59:58.119Z,48.30
2022-10-20T13:02:24.642Z,47.30
2022-10-20T13:05:14.073Z,47.99
2022-10-20T13:07:47.028Z,48.01
2022-10-20T13:10:32.675Z,47.88
2022-10-20T13:13:02.917Z,46.94
2022-10-20T13:15:31.902Z,47.72
2022-10-20T13:18:17.462Z,47.92
2022-10-20T13:20:50.199Z,47.10
2022-10-20T13:23:50.679Z,48.15
2022-10-20T13:26:45.372Z,47.26
2022-10-20T13:29:19.847Z,47.15
2022-10-20T13:32:05.110Z,48.16
2022-10-20T13:34:57.471Z,48.00
2022-10-20T13:37:45.786Z,48.37
2022-10-20T13:40:30.910Z,48.32
2022-10-20T13:43:23.678Z,48.88
2022-10-20T13:45:50.143Z,48.98
2022-10-20T13:48:52.700Z,48.75
2022-10-20T13:51:24.835Z,50.60
2022-10-20T13:53:56.621Z,51.61
2022-10-20T13:56:35.259Z,51.85
2022-10-20T13:59:19.451Z,51.80
2022-10-20T14:01:49.688Z,50.80
2022-10-20T14:04:25.588Z,49.64
2022-10-20T14:06:52.513Z,49.44
2022-10-20T14:09:22.315Z,51.67
2022-10-20T14:12:04.395Z,50.70
2022-10-20T14:14:32.232Z,50.88
2022-10-20T14:17:02.338Z,50.25
2022-10-20T14:19:31.148Z,51.07
2022-10-20T14:22:19.572Z,51.60
2022-10-20T14:24:48.647Z,52.47
2022-10-20T14:27:22.235Z,52.51
2022-10-20T14:29:51.628Z,52.22
2022-10-20T14:32:24.601Z,51.48
2022-10-20T14:35:23.667Z,50.82
2022-10-20T14:38:09.884Z,51.05
2022-10-20T14:40:38.116Z,50.46
2022-10-20T14:43:12.697Z,51.77
2022-10-20T14:45:52.842Z,51.84
2022-10-20T14:48:20.257Z,51.92
2022-10-20T14:50:46.938Z,51.62
2022-10-20T14:53:36.383Z,50.86
2022-10-20T14:56:03.286Z,51.13
2022-10-20T14:58:34.799Z,52.21
2022-10-20T15:01:35.200Z,52.11
2022-10-20T15:04:05.080Z,50.96
2022-10-20T15:06:32.248Z,50.23
2022-10-20T15:08:59.826Z,50.95
2022-10-20T15:11:28.236Z,50.87
2022-10-20T15:13:58.955Z,50.13
2022-10-20T15:16:47.328Z,51.18
2022-10-20T15:19:36.450Z,52.39
2022-10-20T15:24:39.496Z,51.58
2022-10-20T15:27:13.818Z,50.64
2022-10-20T15:29:48.078Z,51.64
2022-10-20T15:32:15.895Z,51.37
2022-10-20T15:34:43.138Z,51.85
2022-10-20T15:37:10.341Z,51.52
2022-10-20T15:39:48.643Z,51.18
2022-10-20T15:42:15.998Z,51.96
2022-10-20T15:44:49.819Z,52.00
2022-10-20T15:47:16.813Z,53.16
2022-10-20T15:49:45.345Z,51.44
2022-10-20T15:52:11.933Z,51.19
2022-10-20T15:55:25.472Z,52.93
2022-10-20T15:57:53.321Z,51.98
2022-10-20T16:00:22.093Z,51.86
2022-10-20T16:02:50.155Z,52.21
2022-10-20T16:05:18.940Z,53.94
2022-10-20T16:07:46.119Z,53.48
2022-10-20T16:10:14.223Z,53.35
2022-10-20T16:12:41.605Z,52.83
2022-10-20T16:15:09.843Z,51.90
2022-10-20T16:17:36.994Z,52.79
2022-10-20T16:20:07.938Z,54.38
2022-10-20T16:22:36.081Z,53.63
2022-10-20T16:25:10.693Z,53.14
2022-10-20T16:27:37.873Z,54.17
2022-10-20T16:30:05.977Z,54.15
2022-10-20T16:32:35.434Z,56.28
2022-10-20T16:35:06.366Z,55.19
2022-10-20T16:37:33.751Z,54.28
2022-10-20T16:40:08.313Z,53.23
2022-10-20T16:42:36.065Z,53.28
2022-10-20T16:45:03.023Z,54.10
2022-10-20T16:47:29.723Z,55.21
2022-10-20T16:49:58.231Z,56.42
2022-10-20T16:52:25.157Z,55.17
2022-10-20T16:54:51.925Z,55.18
2022-10-20T16:57:18.324Z,54.72
2022-10-20T16:59:50.482Z,55.25
2022-10-20T17:02:18.463Z,56.63
2022-10-20T17:04:54.161Z,54.31
2022-10-20T17:07:20.773Z,56.48
2022-10-20T17:10:23.016Z,56.20
2022-10-20T17:15:16.479Z,58.01
2022-10-20T17:17:43.758Z,57.15
2022-10-20T17:20:10.706Z,56.45
2022-10-20T17:22:37.472Z,56.80
2022-10-20T17:25:04.962Z,58.06
2022-10-20T17:27:31.753Z,57.88
2022-10-20T17:29:58.458Z,56.68
2022-10-20T17:32:25.308Z,57.47
2022-10-20T17:34:52.176Z,56.65
2022-10-20T17:37:19.455Z,58.40
2022-10-20T17:39:48.191Z,59.23
2022-10-20T17:42:16.042Z,59.22
2022-10-20T17:44:43.120Z,60.06
2022-10-20T17:47:09.716Z,58.34
2022-10-20T17:49:39.469Z,59.33
2022-10-20T17:52:06.401Z,57.65
2022-10-20T17:54:33.723Z,56.30
2022-10-20T17:57:00.902Z,58.21
2022-10-20T17:59:27.757Z,58.81
2022-10-20T18:01:55.851Z,59.20
2022-10-20T18:04:22.682Z,59.15
2022-10-20T18:06:50.114Z,58.71
2022-10-20T18:09:19.304Z,61.15
2022-10-20T18:11:50.027Z,61.97
2022-10-20T18:14:18.156Z,61.46
2022-10-20T18:16:47.308Z,60.15
2022-10-20T18:19:18.568Z,59.44
2022-10-20T18:21:45.891Z,59.12
2022-10-20T18:24:18.390Z,60.06
2022-10-20T18:26:48.832Z,60.33
2022-10-20T18:29:17.671Z,59.82
2022-10-20T18:31:46.683Z,59.65
2022-10-20T18:34:17.398Z,60.92
2022-10-20T18:36:45.951Z,60.75
2022-10-20T18:39:14.907Z,61.24
2022-10-20T18:41:44.645Z,62.69
2022-10-20T18:44:14.850Z,62.02
2022-10-20T18:46:42.643Z,61.70
2022-10-20T18:49:11.788Z,61.95
2022-10-20T18:51:39.254Z,63.28
2022-10-20T18:54:07.995Z,64.26
2022-10-20T18:56:36.340Z,65.25
2022-10-20T18:59:07.577Z,65.99
2022-10-20T19:01:37.374Z,64.76
2022-10-20T19:04:05.308Z,64.08
2022-10-20T19:06:43.543Z,65.43
2022-10-20T19:09:17.091Z,64.97
2022-10-20T19:11:45.397Z,63.50
2022-10-20T19:14:19.621Z,65.42
2022-10-20T19:16:49.107Z,65.04
2022-10-20T19:19:21.149Z,66.44
2022-10-20T19:21:49.397Z,66.42
2022-10-20T19:24:22.798Z,67.51
2022-10-20T19:27:26.010Z,65.73
2022-10-20T19:29:47.604Z,66.32
2022-10-20T19:32:14.609Z,64.12
2022-10-20T19:34:42.385Z,63.81
2022-10-20T19:37:10.700Z,65.00
2022-10-20T19:39:41.533Z,65.09
2022-10-20T19:42:09.653Z,66.05
2022-10-20T19:44:37.302Z,65.28
2022-10-20T19:47:05.226Z,66.48
2022-10-20T19:49:33.418Z,68.23
2022-10-20T19:52:00.040Z,67.18
2022-10-20T19:54:27.143Z,67.23
2022-10-20T19:56:55.536Z,67.01
2022-10-20T19:59:23.215Z,65.49
2022-10-20T20:01:52.869Z,69.24
2022-10-20T20:04:20.474Z,68.33
2022-10-20T20:06:47.024Z,69.30
2022-10-20T20:09:21.466Z,70.95
2022-10-20T20:11:49.174Z,69.82
2022-10-20T20:14:20.015Z,69.42
2022-10-20T20:16:47.804Z,69.70
2022-10-20T20:19:16.949Z,74.40
2022-10-20T20:21:46.607Z,73.88
2022-10-20T20:24:16.186Z,76.24
2022-10-20T20:26:45.774Z,72.09
2022-10-20T20:29:17.315Z,71.59
2022-10-20T20:31:46.697Z,72.81
2022-10-20T20:34:14.143Z,71.93
2022-10-20T20:36:42.317Z,78.30
2022-10-20T20:39:10.500Z,77.24
2022-10-20T20:41:37.032Z,74.45
2022-10-20T20:44:08.336Z,76.64
2022-10-20T20:46:39.219Z,74.40
2022-10-20T20:49:07.171Z,73.73
2022-10-20T20:51:34.649Z,75.59
2022-10-20T20:54:02.817Z,73.92
2022-10-20T20:56:32.176Z,77.81
2022-10-20T20:59:00.780Z,78.71
2022-10-20T21:01:32.147Z,79.33
2022-10-20T21:04:02.017Z,83.22
2022-10-20T21:06:33.672Z,82.16
2022-10-20T21:09:07.895Z,81.58
2022-10-20T21:11:37.424Z,81.97
2022-10-20T21:14:04.756Z,83.59
2022-10-20T21:16:34.294Z,83.11
2022-10-20T21:19:09.640Z,84.21
2022-10-20T21:21:40.240Z,84.76
2022-10-20T21:24:07.207Z,79.96
2022-10-20T21:26:35.478Z,79.88
2022-10-20T21:29:04.920Z,78.83
2022-10-20T21:31:31.867Z,76.99
2022-10-20T21:34:05.983Z,81.70
2022-10-20T21:36:35.476Z,81.52
2022-10-20T21:39:05.485Z,82.65
2022-10-20T21:41:35.354Z,83.82
2022-10-20T21:44:05.373Z,83.83
2022-10-20T21:46:41.104Z,81.56
2022-10-20T21:49:11.668Z,82.98
2022-10-20T21:51:45.582Z,81.52
2022-10-20T21:54:16.806Z,85.77
2022-10-20T21:56:47.365Z,83.88
2022-10-20T21:59:25.902Z,81.88
2022-10-20T22:01:56.577Z,83.42
2022-10-20T22:04:27.289Z,82.97
2022-10-20T22:06:55.428Z,81.39
2022-10-20T22:09:23.700Z,87.13
2022-10-20T22:11:55.477Z,84.08
2022-10-20T22:14:24.285Z,81.14
2022-10-20T22:16:55.638Z,80.46
2022-10-20T22:19:25.639Z,80.47
2022-10-20T22:21:54.052Z,79.16
2022-10-20T22:24:37.614Z,81.49
2022-10-20T22:27:11.387Z,77.99
2022-10-20T22:29:47.040Z,78.03
2022-10-20T22:32:28.185Z,82.05
2022-10-20T22:34:55.126Z,81.13
2022-10-20T22:37:22.080Z,82.66
2022-10-20T22:39:48.736Z,79.26
2022-10-20T22:42:52.898Z,81.19
2022-10-20T22:45:19.570Z,79.34
2022-10-20T22:47:46.391Z,78.49
2022-10-20T22:50:13.228Z,81.83
2022-10-20T22:52:47.313Z,79.94
2022-10-20T22:55:13.862Z,80.13
2022-10-20T23:00:28.628Z,78.64
2022-10-20T23:02:55.580Z,80.00
2022-10-20T23:05:22.908Z,76.87
2022-10-20T23:07:49.538Z,75.51
2022-10-20T23:10:16.421Z,79.32
2022-10-20T23:12:43.376Z,79.79
2022-10-20T23:15:10.382Z,76.59
2022-10-20T23:17:37.813Z,81.09
2022-10-20T23:20:05.955Z,81.30
2022-10-20T23:22:32.626Z,79.69
2022-10-20T23:25:02.250Z,80.95
2022-10-20T23:27:29.260Z,79.13
2022-10-20T23:29:57.250Z,75.75
2022-10-20T23:32:24.270Z,76.27
2022-10-20T23:34:51.194Z,74.15
2022-10-20T23:37:19.811Z,78.17
2022-10-20T23:39:46.596Z,77.75
2022-10-20T23:42:13.431Z,77.23
2022-10-20T23:44:40.190Z,75.96
2022-10-20T23:47:06.817Z,77.83
2022-10-20T23:49:33.649Z,77.66
2022-10-20T23:52:00.487Z,76.56
2022-10-20T23:54:27.296Z,78.45
2022-10-20T23:56:54.126Z,77.66
2022-10-20T23:59:21.025Z,78.56
